Terminal Aerodrome Forecast
Issued by NWS Anchorage, AK

Home | Current Version | Previous Version | Text Only | Print | Product List | Glossary On
Versions: 1 2 3 4 5 6 7 8 9 10 11 12 13 14 15 16 17 18 19 20 21 22 23 24
000
FTAK31 PANC 251607 AAE
TAFANC
TAF AMD
PANC 251607Z 2516/2618 16010G15KT P6SM FEW070
     FM251900 17012G22KT P6SM VCSH SCT030 BKN060
     FM252300 17015G25KT P6SM -SHRA SCT025 OVC050
     FM260700 17020G30KT P6SM VCSH FEW050 BKN080=

USA.gov is the U.S. government's official web portal to all federal, state and local government web resources and services.